createdAt,value
2022-08-08T00:02:04.260Z,73.54
2022-08-08T00:04:53.011Z,74.63
2022-08-08T00:07:45.928Z,75.24
2022-08-08T00:10:14.058Z,75.50
2022-08-08T00:13:10.271Z,75.26
2022-08-08T00:15:56.134Z,75.30
2022-08-08T00:18:36.009Z,75.44
2022-08-08T00:21:06.125Z,75.60
2022-08-08T00:23:57.897Z,75.07
2022-08-08T00:26:30.029Z,75.76
2022-08-08T00:29:45.616Z,75.29
2022-08-08T00:32:34.331Z,75.37
2022-08-08T00:35:34.370Z,75.65
2022-08-08T00:38:51.854Z,76.38
2022-08-08T00:41:55.592Z,76.95
2022-08-08T00:44:32.535Z,77.07
2022-08-08T00:47:23.189Z,77.42
2022-08-08T00:50:09.283Z,77.24
2022-08-08T00:52:58.710Z,77.07
2022-08-08T00:56:16.611Z,77.23
2022-08-08T00:59:44.653Z,77.48
2022-08-08T01:03:59.158Z,77.39
2022-08-08T01:06:00.722Z,77.42
2022-08-08T01:08:55.999Z,77.54
2022-08-08T01:11:40.592Z,77.79
2022-08-08T01:14:19.274Z,77.94
2022-08-08T01:17:53.784Z,78.40
2022-08-08T01:20:49.037Z,78.36
2022-08-08T01:24:05.603Z,78.35
2022-08-08T01:26:49.769Z,78.47
2022-08-08T01:29:23.923Z,78.59
2022-08-08T01:32:13.139Z,79.08
2022-08-08T01:35:11.373Z,80.15
2022-08-08T01:38:00.038Z,79.61
2022-08-08T01:40:34.441Z,79.39
2022-08-08T01:43:04.850Z,79.47
2022-08-08T01:45:54.559Z,79.56
2022-08-08T01:49:03.865Z,79.59
2022-08-08T01:52:33.478Z,79.73
2022-08-08T01:55:26.898Z,80.00
2022-08-08T01:58:11.844Z,80.38
2022-08-08T02:01:20.932Z,80.54
2022-08-08T02:03:57.347Z,80.47
2022-08-08T02:06:52.153Z,80.83
2022-08-08T02:10:02.141Z,81.01
2022-08-08T02:12:30.364Z,81.41
2022-08-08T02:15:11.452Z,81.42
2022-08-08T02:18:00.140Z,81.75
2022-08-08T02:21:18.117Z,81.50
2022-08-08T02:23:55.616Z,81.70
2022-08-08T02:26:30.176Z,81.95
2022-08-08T02:29:24.831Z,82.31
2022-08-08T02:32:05.304Z,82.44
2022-08-08T02:35:08.376Z,82.31
2022-08-08T02:38:30.172Z,82.32
2022-08-08T02:41:58.039Z,82.02
2022-08-08T02:44:37.152Z,82.24
2022-08-08T02:47:23.881Z,82.52
2022-08-08T02:50:03.472Z,81.77
2022-08-08T02:52:58.792Z,82.00
2022-08-08T02:55:59.734Z,82.07
2022-08-08T02:58:47.733Z,82.23
2022-08-08T03:01:50.052Z,82.66
2022-08-08T03:05:09.367Z,82.73
2022-08-08T03:08:18.666Z,83.14
2022-08-08T03:11:06.805Z,83.21
2022-08-08T03:15:56.572Z,83.33
2022-08-08T03:17:12.779Z,83.45
2022-08-08T03:20:08.192Z,83.31
2022-08-08T03:22:56.320Z,83.35
2022-08-08T03:25:35.997Z,83.40
2022-08-08T03:28:09.089Z,83.37
2022-08-08T03:30:35.543Z,83.91
2022-08-08T03:33:54.624Z,83.62
2022-08-08T03:36:10.406Z,83.80
2022-08-08T03:38:55.752Z,83.76
2022-08-08T03:42:12.745Z,84.02
2022-08-08T03:44:18.787Z,84.10
2022-08-08T03:46:52.023Z,84.39
2022-08-08T03:50:00.164Z,84.27
2022-08-08T03:52:13.072Z,84.10
2022-08-08T03:55:02.493Z,84.67
2022-08-08T03:58:33.577Z,85.31
2022-08-08T04:00:18.572Z,85.58
2022-08-08T04:02:57.535Z,85.62
2022-08-08T04:05:35.588Z,85.69
2022-08-08T04:08:04.022Z,85.65
2022-08-08T04:10:32.568Z,85.54
2022-08-08T04:13:00.228Z,85.56
2022-08-08T04:15:30.473Z,85.38
2022-08-08T04:18:04.951Z,85.57
2022-08-08T04:20:32.050Z,85.87
2022-08-08T04:22:59.630Z,85.72
2022-08-08T04:25:32.816Z,85.42
2022-08-08T04:28:36.698Z,85.31
2022-08-08T04:30:49.837Z,85.26
2022-08-08T04:33:16.257Z,85.01
2022-08-08T04:35:50.911Z,84.91
2022-08-08T04:38:21.105Z,84.76
2022-08-08T04:40:53.509Z,84.66
2022-08-08T04:43:20.404Z,84.65
2022-08-08T04:45:50.100Z,85.04
2022-08-08T04:48:21.958Z,85.55
2022-08-08T04:50:48.753Z,85.89
2022-08-08T04:54:27.629Z,85.73
2022-08-08T04:56:04.046Z,85.77
2022-08-08T04:58:30.505Z,85.52
2022-08-08T05:00:56.979Z,85.69
2022-08-08T05:04:08.027Z,85.60
2022-08-08T05:06:12.920Z,85.16
2022-08-08T05:08:41.573Z,84.77
2022-08-08T05:11:08.513Z,85.07
2022-08-08T05:13:36.769Z,84.68
2022-08-08T05:16:48.435Z,84.44
2022-08-08T05:20:04.389Z,84.14
2022-08-08T05:22:00.509Z,83.81
2022-08-08T05:24:27.289Z,83.43
2022-08-08T05:26:53.708Z,83.31
2022-08-08T05:29:20.135Z,82.69
2022-08-08T05:32:04.285Z,82.62
2022-08-08T05:34:47.662Z,82.45
2022-08-08T05:37:22.947Z,82.45
2022-08-08T05:40:07.126Z,81.99
2022-08-08T05:42:43.029Z,81.17
2022-08-08T05:45:25.475Z,80.37
2022-08-08T05:48:00.644Z,80.32
2022-08-08T05:50:30.372Z,79.07
2022-08-08T05:53:53.963Z,77.75
2022-08-08T05:56:10.422Z,75.80
2022-08-08T05:58:39.832Z,67.53
2022-08-08T06:01:52.721Z,57.30
2022-08-08T06:04:23.698Z,48.78
2022-08-08T06:06:56.620Z,45.74
2022-08-08T06:09:58.124Z,43.33
2022-08-08T06:12:30.398Z,42.13
2022-08-08T06:15:03.235Z,42.18
2022-08-08T06:17:51.079Z,39.09
2022-08-08T06:20:19.690Z,38.33
2022-08-08T06:22:47.248Z,38.59
2022-08-08T06:25:16.637Z,35.95
2022-08-08T06:28:12.299Z,37.58
2022-08-08T06:30:42.301Z,38.18
2022-08-08T06:33:12.178Z,33.34
2022-08-08T06:36:07.129Z,36.38
2022-08-08T06:38:37.259Z,35.22
2022-08-08T06:41:13.128Z,35.69
2022-08-08T06:43:47.683Z,35.58
2022-08-08T06:46:24.255Z,35.43
2022-08-08T06:48:50.831Z,33.84
2022-08-08T06:51:20.502Z,34.78
2022-08-08T06:53:50.763Z,34.05
2022-08-08T06:56:23.832Z,34.19
2022-08-08T06:58:50.324Z,33.82
2022-08-08T07:02:16.650Z,34.18
2022-08-08T07:04:41.629Z,32.60
2022-08-08T07:07:11.320Z,31.35
2022-08-08T07:09:59.505Z,32.05
2022-08-08T07:12:31.847Z,30.12
2022-08-08T07:15:09.124Z,29.95
2022-08-08T07:18:00.709Z,29.92
2022-08-08T07:20:31.629Z,28.85
2022-08-08T07:23:22.635Z,29.09
2022-08-08T07:25:54.401Z,27.73
2022-08-08T07:28:23.999Z,27.97
2022-08-08T07:30:59.065Z,28.21
2022-08-08T07:33:25.615Z,27.52
2022-08-08T07:35:54.574Z,27.87
2022-08-08T07:38:25.491Z,26.68
2022-08-08T07:40:58.754Z,27.29
2022-08-08T07:43:36.730Z,27.25
2022-08-08T07:46:17.854Z,26.97
2022-08-08T07:48:50.788Z,26.86
2022-08-08T07:51:23.924Z,26.83
2022-08-08T07:54:28.859Z,26.72
2022-08-08T07:57:16.925Z,27.02
2022-08-08T07:59:57.798Z,25.87
2022-08-08T08:02:33.135Z,24.78
2022-08-08T08:05:15.048Z,25.61
2022-08-08T08:07:42.842Z,25.05
2022-08-08T08:10:17.992Z,25.87
2022-08-08T08:13:42.541Z,24.14
2022-08-08T08:16:32.047Z,24.13
2022-08-08T08:19:01.755Z,24.04
2022-08-08T08:21:52.501Z,24.03
2022-08-08T08:24:30.664Z,23.48
2022-08-08T08:26:59.948Z,22.21
2022-08-08T08:29:29.692Z,22.71
2022-08-08T08:31:58.292Z,22.48
2022-08-08T08:34:31.647Z,21.43
2022-08-08T08:36:59.283Z,21.42
2022-08-08T08:40:00.278Z,21.11
2022-08-08T08:42:14.266Z,21.37
2022-08-08T08:44:46.987Z,21.00
2022-08-08T08:47:16.317Z,21.30
2022-08-08T08:49:44.504Z,20.61
2022-08-08T08:52:16.177Z,19.94
2022-08-08T08:54:48.691Z,21.19
2022-08-08T08:57:23.486Z,20.48
2022-08-08T09:00:01.593Z,20.54
2022-08-08T09:02:35.451Z,19.35
2022-08-08T09:05:07.769Z,18.35
2022-08-08T09:07:52.126Z,19.86
2022-08-08T09:10:31.813Z,20.67
2022-08-08T09:13:01.776Z,20.05
2022-08-08T09:15:41.024Z,19.47
2022-08-08T09:18:09.404Z,20.33
2022-08-08T09:22:02.631Z,19.91
2022-08-08T09:23:26.213Z,20.23
2022-08-08T09:26:09.149Z,20.30
2022-08-08T09:28:40.614Z,19.06
2022-08-08T09:31:16.390Z,19.56
2022-08-08T09:34:15.813Z,19.14
2022-08-08T09:36:36.013Z,18.09
2022-08-08T09:39:15.335Z,18.87
2022-08-08T09:42:21.332Z,19.33
2022-08-08T09:45:15.430Z,21.82
2022-08-08T09:48:04.066Z,21.37
2022-08-08T09:50:34.920Z,20.56
2022-08-08T09:53:24.359Z,20.43
2022-08-08T09:56:03.173Z,18.32
2022-08-08T09:58:44.706Z,19.82
2022-08-08T10:01:15.252Z,20.94
2022-08-08T10:04:02.166Z,22.21
2022-08-08T10:06:32.558Z,21.09
2022-08-08T10:09:02.021Z,20.19
2022-08-08T10:12:26.446Z,21.58
2022-08-08T10:14:35.239Z,22.66
2022-08-08T10:17:56.405Z,24.60
2022-08-08T10:20:00.054Z,25.09
2022-08-08T10:22:28.948Z,26.75
2022-08-08T10:25:01.866Z,28.16
2022-08-08T10:27:34.264Z,28.23
2022-08-08T10:30:04.612Z,24.53
2022-08-08T10:32:34.324Z,24.61
2022-08-08T10:36:06.858Z,21.82
2022-08-08T10:38:14.815Z,20.60
2022-08-08T10:40:42.818Z,19.84
2022-08-08T10:43:10.189Z,19.62
2022-08-08T10:45:55.624Z,19.37
2022-08-08T10:48:56.670Z,18.41
2022-08-08T10:51:31.347Z,18.60
2022-08-08T10:54:07.170Z,19.75
2022-08-08T10:56:35.582Z,20.31
2022-08-08T10:59:10.381Z,20.48
2022-08-08T11:01:46.284Z,19.65
2022-08-08T11:04:16.332Z,19.50
2022-08-08T11:06:49.241Z,19.20
2022-08-08T11:09:21.662Z,19.09
2022-08-08T11:12:05.252Z,18.85
2022-08-08T11:14:57.803Z,18.51
2022-08-08T11:17:58.491Z,18.70
2022-08-08T11:20:18.139Z,19.52
2022-08-08T11:22:54.528Z,19.53
2022-08-08T11:25:53.449Z,18.56
2022-08-08T11:28:13.791Z,18.25
2022-08-08T11:30:40.877Z,18.11
2022-08-08T11:33:19.144Z,18.47
2022-08-08T11:35:47.066Z,18.14
2022-08-08T11:38:39.370Z,18.51
2022-08-08T11:41:03.140Z,17.77
2022-08-08T11:43:39.573Z,18.31
2022-08-08T11:46:17.408Z,18.24
2022-08-08T11:48:47.029Z,19.34
2022-08-08T11:51:30.350Z,19.44
2022-08-08T11:54:04.245Z,17.98
2022-08-08T11:56:35.287Z,18.30
2022-08-08T11:59:10.090Z,18.06
2022-08-08T12:01:37.186Z,19.00
2022-08-08T12:04:05.200Z,18.41
2022-08-08T12:06:34.627Z,19.36
2022-08-08T12:09:09.222Z,18.14
2022-08-08T12:11:42.519Z,19.00
2022-08-08T12:14:11.589Z,18.73
2022-08-08T12:16:49.185Z,19.02
2022-08-08T12:19:15.843Z,19.47
2022-08-08T12:21:59.279Z,21.92
2022-08-08T12:24:28.677Z,18.56
2022-08-08T12:26:58.508Z,19.64
2022-08-08T12:29:25.904Z,18.75
2022-08-08T12:32:17.323Z,19.72
2022-08-08T12:35:13.299Z,20.70
2022-08-08T12:37:48.126Z,20.33
2022-08-08T12:40:44.406Z,19.25
2022-08-08T12:43:31.926Z,20.11
2022-08-08T12:46:02.956Z,21.57
2022-08-08T12:48:37.002Z,22.25
2022-08-08T12:51:05.616Z,23.53
2022-08-08T12:53:42.022Z,26.89
2022-08-08T12:56:18.898Z,24.65
2022-08-08T12:58:53.993Z,26.68
2022-08-08T13:01:34.891Z,25.90
2022-08-08T13:04:19.222Z,28.56
2022-08-08T13:07:01.349Z,28.86
2022-08-08T13:10:04.290Z,30.01
2022-08-08T13:12:39.546Z,26.77
2022-08-08T13:15:12.177Z,25.16
2022-08-08T13:17:53.907Z,21.46
2022-08-08T13:20:27.855Z,22.71
2022-08-08T13:23:30.201Z,22.65
2022-08-08T13:25:43.423Z,23.50
2022-08-08T13:28:09.803Z,23.14
2022-08-08T13:30:36.345Z,23.04
2022-08-08T13:33:04.136Z,23.05
2022-08-08T13:35:38.930Z,23.36
2022-08-08T13:38:13.319Z,22.22
2022-08-08T13:40:45.181Z,23.19
2022-08-08T13:43:15.853Z,23.86
2022-08-08T13:45:43.612Z,23.21
2022-08-08T13:48:15.795Z,23.20
2022-08-08T13:50:52.064Z,23.47
2022-08-08T13:53:36.466Z,23.81
2022-08-08T13:56:07.057Z,24.62
2022-08-08T13:58:56.113Z,25.02
2022-08-08T14:01:42.197Z,26.65
2022-08-08T14:04:21.949Z,27.14
2022-08-08T14:06:48.701Z,26.65
2022-08-08T14:09:25.364Z,27.31
2022-08-08T14:12:00.009Z,28.72
2022-08-08T14:14:41.754Z,30.01
2022-08-08T14:17:11.782Z,28.84
2022-08-08T14:20:07.207Z,28.19
2022-08-08T14:22:43.087Z,28.22
2022-08-08T14:25:15.503Z,30.71
2022-08-08T14:27:59.604Z,30.51
2022-08-08T14:30:33.562Z,30.77
2022-08-08T14:33:00.325Z,30.72
2022-08-08T14:35:28.337Z,31.70
2022-08-08T14:38:09.477Z,28.84
2022-08-08T14:40:40.590Z,28.79
2022-08-08T14:43:22.225Z,29.40
2022-08-08T14:46:07.557Z,29.60
2022-08-08T14:48:52.481Z,31.29
2022-08-08T14:51:25.710Z,29.70
2022-08-08T14:54:12.138Z,30.08
2022-08-08T14:56:41.112Z,29.87
2022-08-08T14:59:31.427Z,30.61
2022-08-08T15:01:58.913Z,31.28
2022-08-08T15:04:26.335Z,30.17
2022-08-08T15:06:52.903Z,31.61
2022-08-08T15:09:19.436Z,30.23
2022-08-08T15:11:52.870Z,30.92
2022-08-08T15:14:24.976Z,32.07
2022-08-08T15:16:52.774Z,31.42
2022-08-08T15:19:19.644Z,29.57
2022-08-08T15:21:50.191Z,30.32
2022-08-08T15:24:17.017Z,31.98
2022-08-08T15:26:46.814Z,32.21
2022-08-08T15:29:22.647Z,32.82
2022-08-08T15:32:19.864Z,31.59
2022-08-08T15:34:38.771Z,31.42
2022-08-08T15:37:06.864Z,31.34
2022-08-08T15:39:37.544Z,31.23
2022-08-08T15:42:13.386Z,31.18
2022-08-08T15:44:54.151Z,30.67
2022-08-08T15:47:22.422Z,31.02
2022-08-08T15:49:50.196Z,30.84
2022-08-08T15:52:20.554Z,31.01
2022-08-08T15:54:51.699Z,31.04
2022-08-08T15:57:20.669Z,28.89
2022-08-08T16:00:06.847Z,30.68
2022-08-08T16:02:34.180Z,31.21
2022-08-08T16:05:01.853Z,32.14
2022-08-08T16:07:39.298Z,31.76
2022-08-08T16:13:09.811Z,32.03
2022-08-08T16:13:27.782Z,34.12
2022-08-08T16:15:58.185Z,35.72
2022-08-08T16:18:27.237Z,35.54
2022-08-08T16:20:53.754Z,34.36
2022-08-08T16:23:27.569Z,36.11
2022-08-08T16:25:58.131Z,34.57
2022-08-08T16:28:35.605Z,35.41
2022-08-08T16:31:07.623Z,35.69
2022-08-08T16:33:38.564Z,36.25
2022-08-08T16:36:08.867Z,34.99
2022-08-08T16:38:44.645Z,34.80
2022-08-08T16:41:20.186Z,35.23
2022-08-08T16:43:49.150Z,35.14
2022-08-08T16:46:38.792Z,34.64
2022-08-08T16:49:05.389Z,36.01
2022-08-08T16:55:00.525Z,37.26
2022-08-08T16:55:01.419Z,38.99
2022-08-08T16:57:27.861Z,37.15
2022-08-08T16:59:53.786Z,37.74
2022-08-08T17:02:42.930Z,37.74
2022-08-08T17:05:13.721Z,37.50
2022-08-08T17:07:42.022Z,37.86
2022-08-08T17:10:19.150Z,38.85
2022-08-08T17:12:52.611Z,38.03
2022-08-08T17:15:20.871Z,38.17
2022-08-08T17:18:02.610Z,39.84
2022-08-08T17:20:31.180Z,37.42
2022-08-08T17:23:17.717Z,38.78
2022-08-08T17:25:53.540Z,38.43
2022-08-08T17:28:28.797Z,40.78
2022-08-08T17:31:01.567Z,39.60
2022-08-08T17:34:35.672Z,37.25
2022-08-08T17:36:28.700Z,39.16
2022-08-08T17:38:58.022Z,37.77
2022-08-08T17:41:38.637Z,37.36
2022-08-08T17:44:07.756Z,38.12
2022-08-08T17:46:47.268Z,38.82
2022-08-08T17:49:24.168Z,40.21
2022-08-08T17:51:52.112Z,41.05
2022-08-08T17:54:22.541Z,42.25
2022-08-08T17:56:54.486Z,42.20
2022-08-08T17:59:23.507Z,42.06
2022-08-08T18:01:59.646Z,41.06
2022-08-08T18:04:31.119Z,41.70
2022-08-08T18:06:59.665Z,41.97
2022-08-08T18:09:27.584Z,42.30
2022-08-08T18:12:04.987Z,42.76
2022-08-08T18:14:36.711Z,42.07
2022-08-08T18:17:04.303Z,43.12
2022-08-08T18:19:45.640Z,43.55
2022-08-08T18:22:37.475Z,43.43
2022-08-08T18:24:59.497Z,45.09
2022-08-08T18:27:26.333Z,45.29
2022-08-08T18:29:57.485Z,45.67
2022-08-08T18:32:23.936Z,45.59
2022-08-08T18:34:50.352Z,46.24
2022-08-08T18:37:17.670Z,46.51
2022-08-08T18:40:00.418Z,47.15
2022-08-08T18:42:26.931Z,47.31
2022-08-08T18:44:57.263Z,48.80
2022-08-08T18:47:26.325Z,48.63
2022-08-08T18:49:58.454Z,48.78
2022-08-08T18:52:27.061Z,49.78
2022-08-08T18:55:00.203Z,50.41
2022-08-08T18:57:42.038Z,50.78
2022-08-08T19:00:16.862Z,51.03
2022-08-08T19:02:55.788Z,51.16
2022-08-08T19:05:34.106Z,52.16
2022-08-08T19:08:08.160Z,52.85
2022-08-08T19:10:36.020Z,53.02
2022-08-08T19:13:03.521Z,53.99
2022-08-08T19:15:34.369Z,54.48
2022-08-08T19:18:33.277Z,54.76
2022-08-08T19:20:47.550Z,54.79
2022-08-08T19:23:13.980Z,55.35
2022-08-08T19:26:02.003Z,55.50
2022-08-08T19:28:30.245Z,56.18
2022-08-08T19:31:04.191Z,57.52
2022-08-08T19:33:51.543Z,57.84
2022-08-08T19:36:25.204Z,59.44
2022-08-08T19:38:55.266Z,58.98
2022-08-08T19:41:21.714Z,59.06
2022-08-08T19:44:02.966Z,59.31
2022-08-08T19:46:33.765Z,60.16
2022-08-08T19:49:01.224Z,59.62
2022-08-08T19:51:34.058Z,59.48
2022-08-08T19:54:01.647Z,59.56
2022-08-08T19:56:39.970Z,59.33
2022-08-08T19:59:12.747Z,59.87
2022-08-08T20:02:01.141Z,60.59
2022-08-08T20:04:27.378Z,60.70
2022-08-08T20:06:53.833Z,61.20
2022-08-08T20:09:23.451Z,61.67
2022-08-08T20:11:50.688Z,62.27
2022-08-08T20:14:32.922Z,62.51
2022-08-08T20:17:01.976Z,62.87
2022-08-08T20:19:33.474Z,63.64
2022-08-08T20:22:20.669Z,63.40
2022-08-08T20:24:51.793Z,63.90
2022-08-08T20:27:21.128Z,63.28
2022-08-08T20:29:55.976Z,63.43
2022-08-08T20:32:28.084Z,64.24
2022-08-08T20:35:01.328Z,65.02
2022-08-08T20:37:46.707Z,64.74
2022-08-08T20:40:16.550Z,64.97
2022-08-08T20:42:54.939Z,64.56
2022-08-08T20:45:54.331Z,64.28
2022-08-08T20:48:08.603Z,64.20
2022-08-08T20:50:35.256Z,64.89
2022-08-08T20:53:01.762Z,65.21
2022-08-08T20:55:29.054Z,64.35
2022-08-08T20:58:02.391Z,64.96
2022-08-08T21:00:29.113Z,65.15
2022-08-08T21:02:56.898Z,64.89
2022-08-08T21:05:23.636Z,64.64
2022-08-08T21:08:33.694Z,64.93
2022-08-08T21:10:45.345Z,64.61
2022-08-08T21:13:11.771Z,64.93
2022-08-08T21:16:06.370Z,64.18
2022-08-08T21:18:28.073Z,64.72
2022-08-08T21:20:54.924Z,65.04
2022-08-08T21:23:25.118Z,65.11
2022-08-08T21:26:08.274Z,65.11
2022-08-08T21:28:36.155Z,64.38
2022-08-08T21:31:22.854Z,63.94
2022-08-08T21:33:50.609Z,63.38
2022-08-08T21:36:20.444Z,64.65
2022-08-08T21:38:48.182Z,64.01
2022-08-08T21:41:28.847Z,63.73
2022-08-08T21:44:01.122Z,63.66
2022-08-08T21:48:06.768Z,64.13
2022-08-08T21:49:16.715Z,63.74
2022-08-08T21:54:17.427Z,63.98
2022-08-08T21:55:02.232Z,64.13
2022-08-08T21:57:17.742Z,63.21
2022-08-08T22:00:02.647Z,62.71
2022-08-08T22:02:30.567Z,63.40
2022-08-08T22:04:58.968Z,63.59
2022-08-08T22:07:39.397Z,63.20
2022-08-08T22:10:18.411Z,63.91
2022-08-08T22:13:16.643Z,64.17
2022-08-08T22:15:43.024Z,64.14
2022-08-08T22:18:27.469Z,64.37
2022-08-08T22:20:57.453Z,63.95
2022-08-08T22:23:29.721Z,65.13
2022-08-08T22:26:26.717Z,64.23
2022-08-08T22:29:13.132Z,64.72
2022-08-08T22:31:35.110Z,63.64
2022-08-08T22:34:13.883Z,63.80
2022-08-08T22:36:42.624Z,63.79
2022-08-08T22:39:09.892Z,63.67
2022-08-08T22:41:45.473Z,64.36
2022-08-08T22:44:11.875Z,64.08
2022-08-08T22:46:39.947Z,63.69
2022-08-08T22:49:06.969Z,63.88
2022-08-08T22:51:46.286Z,63.37
2022-08-08T22:54:31.404Z,63.48
2022-08-08T22:57:00.128Z,63.71
2022-08-08T22:59:26.960Z,63.76
2022-08-08T23:02:12.600Z,64.77
2022-08-08T23:04:55.760Z,63.59
2022-08-08T23:07:23.998Z,63.52
2022-08-08T23:10:10.626Z,63.61
2022-08-08T23:12:40.678Z,63.34
2022-08-08T23:16:38.101Z,63.78
2022-08-08T23:17:58.301Z,64.07
2022-08-08T23:20:27.175Z,64.17
2022-08-08T23:22:54.943Z,64.36
2022-08-08T23:25:21.408Z,65.08
2022-08-08T23:27:48.754Z,64.64
2022-08-08T23:30:22.393Z,64.50
2022-08-08T23:32:49.280Z,65.05
2022-08-08T23:35:17.339Z,65.14
2022-08-08T23:38:03.016Z,65.65
2022-08-08T23:40:30.702Z,65.29
2022-08-08T23:42:57.295Z,65.81
2022-08-08T23:49:03.738Z,66.34
2022-08-08T23:49:05.464Z,66.28
2022-08-08T23:50:58.040Z,65.80
2022-08-08T23:54:04.748Z,66.02
2022-08-08T23:56:12.124Z,65.63
2022-08-08T23:58:38.704Z,66.31
